createdAt,value
2018-09-08T00:00:30.081Z,12.60
2018-09-08T00:02:59.010Z,12.60
2018-09-08T00:05:27.150Z,12.70
2018-09-08T00:07:55.307Z,12.30
2018-09-08T00:10:23.418Z,12.00
2018-09-08T00:12:51.542Z,12.00
2018-09-08T00:15:31.850Z,12.00
2018-09-08T00:18:05.507Z,12.00
2018-09-08T00:20:39.046Z,12.00
2018-09-08T00:23:12.438Z,12.00
2018-09-08T00:25:46.007Z,12.00
2018-09-08T00:28:20.145Z,12.00
2018-09-08T00:30:48.314Z,12.00
2018-09-08T00:33:16.441Z,12.00
2018-09-08T00:35:44.669Z,12.00
2018-09-08T00:38:12.839Z,12.00
2018-09-08T00:40:40.986Z,12.00
2018-09-08T00:43:09.156Z,12.10
2018-09-08T00:45:37.345Z,12.10
2018-09-08T00:48:05.488Z,12.10
2018-09-08T00:50:33.670Z,12.20
2018-09-08T00:53:01.802Z,12.10
2018-09-08T00:55:29.933Z,11.90
2018-09-08T00:57:58.101Z,11.90
2018-09-08T01:00:26.281Z,12.00
2018-09-08T01:02:54.406Z,11.80
2018-09-08T01:05:22.622Z,11.80
2018-09-08T01:07:50.777Z,11.40
2018-09-08T01:10:18.910Z,11.30
2018-09-08T01:12:47.050Z,11.30
2018-09-08T01:15:15.194Z,11.20
2018-09-08T01:17:43.313Z,11.30
2018-09-08T01:20:11.439Z,11.30
2018-09-08T01:22:39.557Z,11.20
2018-09-08T01:25:07.679Z,11.30
2018-09-08T01:27:35.836Z,11.30
2018-09-08T01:30:04.020Z,11.30
2018-09-08T01:32:32.130Z,11.30
2018-09-08T01:35:00.295Z,11.30
2018-09-08T01:37:28.426Z,11.40
2018-09-08T01:39:56.561Z,11.50
2018-09-08T01:42:24.683Z,11.40
2018-09-08T01:44:52.890Z,11.60
2018-09-08T01:47:21.023Z,11.60
2018-09-08T01:49:49.154Z,11.60
2018-09-08T01:52:17.290Z,11.70
2018-09-08T01:54:45.440Z,11.70
2018-09-08T01:57:13.566Z,11.70
2018-09-08T01:59:41.729Z,11.70
2018-09-08T02:02:09.857Z,11.70
2018-09-08T02:04:38.014Z,11.70
2018-09-08T02:07:06.157Z,11.80
2018-09-08T02:09:34.326Z,11.80
2018-09-08T02:12:02.564Z,11.80
2018-09-08T02:14:30.741Z,11.70
2018-09-08T02:16:58.861Z,11.70
2018-09-08T02:19:27.021Z,11.70
2018-09-08T02:24:23.094Z,11.60
2018-09-08T02:26:51.241Z,11.60
2018-09-08T02:29:19.369Z,11.60
2018-09-08T02:31:47.507Z,11.60
2018-09-08T02:34:15.665Z,11.50
2018-09-08T02:36:43.882Z,11.30
2018-09-08T02:39:12.017Z,11.20
2018-09-08T02:41:40.141Z,11.10
2018-09-08T02:44:08.614Z,11.00
2018-09-08T02:46:36.753Z,11.00
2018-09-08T02:49:04.993Z,10.90
2018-09-08T02:51:32.197Z,10.90
2018-09-08T02:53:59.369Z,10.80
2018-09-08T02:56:26.558Z,10.70
2018-09-08T02:58:53.773Z,10.70
2018-09-08T03:01:20.950Z,10.70
2018-09-08T03:03:48.208Z,10.70
2018-09-08T03:06:15.346Z,10.60
2018-09-08T03:08:42.546Z,10.60
2018-09-08T03:13:37.203Z,10.50
2018-09-08T03:16:04.370Z,10.50
2018-09-08T03:18:31.569Z,10.50
2018-09-08T03:20:58.759Z,10.50
2018-09-08T03:25:53.386Z,10.40
2018-09-08T03:28:20.557Z,10.40
2018-09-08T03:30:47.750Z,10.40
2018-09-08T03:33:14.929Z,10.40
2018-09-08T03:35:42.122Z,10.30
2018-09-08T03:38:09.297Z,10.40
2018-09-08T03:40:36.481Z,10.50
2018-09-08T03:43:03.673Z,10.60
2018-09-08T03:45:30.862Z,10.60
2018-09-08T03:47:58.041Z,10.60
2018-09-08T03:50:25.230Z,10.60
2018-09-08T03:52:52.405Z,10.40
2018-09-08T03:55:19.590Z,10.40
2018-09-08T03:57:46.781Z,10.30
2018-09-08T04:00:13.949Z,10.20
2018-09-08T04:02:42.259Z,10.20
2018-09-08T04:05:10.408Z,10.10
2018-09-08T04:07:38.574Z,10.00
2018-09-08T04:10:06.734Z,9.90
2018-09-08T04:12:34.887Z,9.90
2018-09-08T04:15:03.015Z,9.90
2018-09-08T04:17:31.176Z,10.00
2018-09-08T04:22:33.285Z,10.00
2018-09-08T04:25:01.414Z,10.00
2018-09-08T04:29:57.626Z,10.00
2018-09-08T04:32:25.770Z,10.00
2018-09-08T04:34:53.947Z,9.90
2018-09-08T04:37:22.094Z,10.10
2018-09-08T04:39:50.205Z,10.20
2018-09-08T04:44:46.288Z,10.20
2018-09-08T04:47:14.426Z,10.20
2018-09-08T04:49:42.644Z,10.30
2018-09-08T04:52:10.782Z,10.40
2018-09-08T04:54:38.922Z,10.40
2018-09-08T04:57:07.053Z,10.40
2018-09-08T04:59:35.226Z,10.30
2018-09-08T05:02:03.353Z,10.40
2018-09-08T05:04:31.485Z,10.30
2018-09-08T05:06:59.633Z,10.40
2018-09-08T05:09:27.767Z,10.30
2018-09-08T05:11:55.896Z,10.30
2018-09-08T05:19:19.854Z,10.30
2018-09-08T05:21:47.974Z,10.40
2018-09-08T05:24:16.102Z,10.40
2018-09-08T05:26:44.241Z,10.50
2018-09-08T05:29:12.388Z,10.50
2018-09-08T05:31:40.505Z,10.40
2018-09-08T05:34:08.638Z,10.40
2018-09-08T05:36:36.770Z,10.40
2018-09-08T05:39:06.117Z,10.30
2018-09-08T05:41:34.242Z,10.30
2018-09-08T05:46:30.281Z,10.30
2018-09-08T05:48:58.508Z,10.40
2018-09-08T05:51:26.562Z,10.40
2018-09-08T05:53:55.730Z,10.50
2018-09-08T05:56:23.855Z,10.60
2018-09-08T05:58:52.150Z,10.60
2018-09-08T06:01:20.271Z,10.70
2018-09-08T06:03:48.633Z,10.70
2018-09-08T06:06:16.757Z,10.80
2018-09-08T06:08:44.919Z,10.90
2018-09-08T06:11:13.055Z,11.00
2018-09-08T06:13:41.214Z,11.10
2018-09-08T06:16:09.389Z,11.20
2018-09-08T06:21:05.297Z,11.40
2018-09-08T06:26:01.369Z,11.70
2018-09-08T06:28:29.547Z,11.80
2018-09-08T06:30:58.051Z,11.90
2018-09-08T06:33:26.213Z,12.00
2018-09-08T06:35:54.346Z,12.10
2018-09-08T06:38:22.512Z,12.10
2018-09-08T06:40:50.631Z,12.20
2018-09-08T06:48:14.614Z,12.40
2018-09-08T06:50:42.818Z,12.50
2018-09-08T06:53:10.946Z,12.60
2018-09-08T06:55:39.119Z,12.60
2018-09-08T06:58:07.438Z,12.70
2018-09-08T07:05:31.877Z,12.90
2018-09-08T07:08:00.033Z,12.90
2018-09-08T07:10:28.172Z,13.00
2018-09-08T07:12:56.281Z,13.00
2018-09-08T07:20:20.278Z,13.20
2018-09-08T07:30:12.139Z,13.50
2018-09-08T07:32:40.258Z,13.50
2018-09-08T07:35:08.408Z,13.60
2018-09-08T07:37:36.602Z,13.60
2018-09-08T07:42:32.771Z,13.80
2018-09-08T07:45:00.919Z,13.70
2018-09-08T07:52:24.891Z,14.00
2018-09-08T07:54:53.037Z,14.10
2018-09-08T07:57:21.201Z,14.20
2018-09-08T07:59:49.390Z,14.20
2018-09-08T08:02:17.526Z,14.30
2018-09-08T08:04:45.669Z,14.30
2018-09-08T08:07:14.382Z,14.30
2018-09-08T08:09:43.478Z,14.30
2018-09-08T08:12:11.852Z,14.40
2018-09-08T08:14:40.328Z,14.50
2018-09-08T08:17:08.444Z,14.50
2018-09-08T08:19:37.094Z,14.50
2018-09-08T08:24:33.146Z,14.70
2018-09-08T08:27:01.606Z,14.70
2018-09-08T08:29:29.999Z,14.70
2018-09-08T08:31:58.128Z,14.80
2018-09-08T08:34:26.258Z,14.80
2018-09-08T08:39:22.299Z,14.90
2018-09-08T08:41:50.425Z,14.90
2018-09-08T08:44:18.565Z,14.90
2018-09-08T08:46:46.703Z,15.00
2018-09-08T08:49:14.845Z,15.00
2018-09-08T08:51:54.401Z,15.10
2018-09-08T08:54:30.026Z,15.10
2018-09-08T08:56:58.158Z,15.20
2018-09-08T09:02:00.638Z,15.40
2018-09-08T09:04:28.789Z,15.50
2018-09-08T09:06:57.357Z,15.50
2018-09-08T09:09:25.095Z,15.60
2018-09-08T09:11:53.720Z,15.60
2018-09-08T09:16:49.298Z,15.60
2018-09-08T09:20:26.870Z,15.70
2018-09-08T09:23:06.670Z,15.90
2018-09-08T09:25:34.674Z,15.90
2018-09-08T09:28:02.833Z,16.00
2018-09-08T09:30:30.981Z,16.00
2018-09-08T09:32:59.357Z,16.10
2018-09-08T09:37:55.392Z,16.20
2018-09-08T09:40:23.585Z,16.20
2018-09-08T09:42:51.710Z,16.30
2018-09-08T09:45:19.832Z,16.40
2018-09-08T09:50:15.854Z,16.50
2018-09-08T09:52:43.969Z,16.50
2018-09-08T09:57:39.990Z,16.60
2018-09-08T10:00:09.511Z,16.70
2018-09-08T10:02:40.585Z,16.90
2018-09-08T10:05:24.707Z,17.00
2018-09-08T10:07:53.729Z,16.90
2018-09-08T10:10:25.273Z,17.00
2018-09-08T10:12:53.393Z,17.00
2018-09-08T10:15:21.521Z,17.00
2018-09-08T10:17:49.679Z,17.00
2018-09-08T10:20:19.218Z,17.20
2018-09-08T10:22:47.341Z,17.30
2018-09-08T10:25:16.818Z,17.30
2018-09-08T10:30:14.134Z,17.30
2018-09-08T10:32:43.246Z,17.40
2018-09-08T10:35:11.366Z,17.40
2018-09-08T10:37:39.529Z,17.50
2018-09-08T10:40:08.745Z,17.60
2018-09-08T10:42:36.906Z,17.70
2018-09-08T10:47:33.071Z,17.90
2018-09-08T10:50:01.187Z,18.20
2018-09-08T10:52:32.321Z,18.20
2018-09-08T10:55:00.450Z,18.50
2018-09-08T10:57:28.610Z,19.00
2018-09-08T10:59:56.857Z,19.10
2018-09-08T11:02:25.297Z,19.30
2018-09-08T11:04:53.350Z,19.50
2018-09-08T11:07:21.507Z,19.50
2018-09-08T11:09:49.672Z,19.30
2018-09-08T11:12:17.813Z,19.20
2018-09-08T11:14:45.941Z,19.30
2018-09-08T11:17:14.182Z,19.40
2018-09-08T11:19:42.291Z,19.30
2018-09-08T11:22:10.459Z,19.30
2018-09-08T11:24:38.629Z,19.40
2018-09-08T11:27:06.761Z,19.30
2018-09-08T11:29:34.883Z,19.30
2018-09-08T11:32:03.053Z,19.30
2018-09-08T11:34:31.245Z,19.30
2018-09-08T11:36:59.401Z,19.40
2018-09-08T11:39:27.510Z,19.40
2018-09-08T11:41:55.639Z,19.50
2018-09-08T11:44:23.786Z,19.30
2018-09-08T11:46:51.909Z,19.20
2018-09-08T11:49:20.035Z,19.00
2018-09-08T11:51:48.174Z,19.00
2018-09-08T11:54:16.332Z,19.00
2018-09-08T11:56:44.465Z,18.90
2018-09-08T11:59:12.598Z,19.00
2018-09-08T12:01:40.742Z,19.30
2018-09-08T12:04:08.903Z,19.30
2018-09-08T12:06:37.067Z,19.50
2018-09-08T12:09:07.448Z,19.60
2018-09-08T12:11:35.678Z,19.50
2018-09-08T12:14:03.848Z,19.30
2018-09-08T12:16:31.964Z,19.10
2018-09-08T12:19:00.176Z,19.10
2018-09-08T12:21:28.258Z,19.00
2018-09-08T12:23:56.410Z,19.00
2018-09-08T12:26:24.546Z,19.10
2018-09-08T12:28:52.732Z,19.40
2018-09-08T12:31:20.870Z,19.70
2018-09-08T12:33:49.024Z,19.80
2018-09-08T12:36:17.151Z,19.90
2018-09-08T12:38:45.356Z,19.90
2018-09-08T12:41:13.469Z,19.80
2018-09-08T12:43:41.627Z,19.60
2018-09-08T12:46:09.784Z,19.60
2018-09-08T12:48:37.953Z,19.50
2018-09-08T12:51:06.080Z,19.30
2018-09-08T12:53:34.203Z,19.30
2018-09-08T12:56:02.358Z,19.40
2018-09-08T12:58:30.496Z,19.30
2018-09-08T13:00:58.613Z,19.60
2018-09-08T13:03:26.750Z,19.70
2018-09-08T13:05:54.870Z,19.70
2018-09-08T13:08:22.985Z,19.80
2018-09-08T13:10:51.112Z,20.00
2018-09-08T13:13:19.323Z,20.10
2018-09-08T13:15:47.462Z,20.10
2018-09-08T13:18:15.588Z,20.10
2018-09-08T13:20:43.724Z,20.30
2018-09-08T13:23:11.839Z,20.40
2018-09-08T13:25:39.995Z,20.40
2018-09-08T13:28:08.129Z,20.50
2018-09-08T13:30:36.254Z,20.50
2018-09-08T13:33:04.372Z,20.40
2018-09-08T13:35:32.522Z,20.40
2018-09-08T13:38:00.658Z,20.40
2018-09-08T13:40:28.821Z,20.40
2018-09-08T13:42:56.974Z,20.40
2018-09-08T13:45:25.132Z,20.50
2018-09-08T13:47:53.274Z,20.60
2018-09-08T13:50:21.422Z,20.70
2018-09-08T13:52:49.610Z,20.70
2018-09-08T14:00:13.606Z,20.90
2018-09-08T14:02:41.746Z,20.80
2018-09-08T14:05:09.890Z,20.80
2018-09-08T14:07:42.280Z,20.80
2018-09-08T14:10:10.474Z,20.80
2018-09-08T14:12:38.598Z,20.70
2018-09-08T14:15:06.844Z,20.80
2018-09-08T14:17:34.961Z,20.80
2018-09-08T14:20:03.110Z,20.90
2018-09-08T14:22:31.230Z,20.90
2018-09-08T14:24:59.398Z,20.90
2018-09-08T14:27:27.538Z,20.90
2018-09-08T14:29:55.690Z,21.00
2018-09-08T14:32:23.837Z,21.10
2018-09-08T14:34:52.010Z,21.10
2018-09-08T14:37:20.127Z,21.00
2018-09-08T14:39:48.286Z,21.10
2018-09-08T14:42:16.425Z,21.10
2018-09-08T14:44:44.558Z,21.10
2018-09-08T14:47:13.006Z,21.20
2018-09-08T14:49:41.142Z,21.20
2018-09-08T14:52:09.274Z,21.20
2018-09-08T14:54:37.486Z,21.20
2018-09-08T14:57:05.667Z,21.20
2018-09-08T14:59:33.824Z,21.20
2018-09-08T15:02:02.123Z,21.20
2018-09-08T15:04:30.342Z,21.10
2018-09-08T15:06:58.474Z,21.10
2018-09-08T15:09:26.598Z,21.10
2018-09-08T15:11:54.726Z,21.10
2018-09-08T15:14:22.932Z,21.20
2018-09-08T15:16:51.062Z,21.10
2018-09-08T15:19:19.190Z,21.20
2018-09-08T15:21:47.329Z,21.20
2018-09-08T15:24:15.472Z,21.10
2018-09-08T15:26:43.638Z,21.10
2018-09-08T15:29:11.770Z,20.90
2018-09-08T15:31:39.955Z,20.90
2018-09-08T15:34:08.099Z,21.00
2018-09-08T15:36:36.237Z,21.10
2018-09-08T15:39:06.886Z,21.10
2018-09-08T15:41:35.035Z,20.90
2018-09-08T15:44:03.137Z,20.80
2018-09-08T15:46:31.286Z,20.90
2018-09-08T15:48:59.453Z,20.70
2018-09-08T15:51:27.733Z,20.60
2018-09-08T15:53:56.142Z,20.60
2018-09-08T15:56:24.289Z,20.70
2018-09-08T15:58:52.414Z,20.70
2018-09-08T16:01:20.555Z,20.80
2018-09-08T16:03:48.693Z,20.90
2018-09-08T16:06:16.870Z,21.00
2018-09-08T16:08:45.010Z,21.00
2018-09-08T16:18:36.904Z,20.60
2018-09-08T16:21:05.233Z,20.60
2018-09-08T16:23:33.365Z,20.60
2018-09-08T16:26:01.526Z,20.60
2018-09-08T16:28:29.774Z,20.50
2018-09-08T16:30:57.838Z,20.40
2018-09-08T16:33:25.966Z,20.50
2018-09-08T16:35:54.106Z,20.40
2018-09-08T16:38:22.283Z,20.40
2018-09-08T16:40:50.425Z,20.20
2018-09-08T16:43:18.626Z,20.10
2018-09-08T16:45:46.754Z,20.20
2018-09-08T16:48:14.949Z,20.20
2018-09-08T16:50:43.078Z,20.30
2018-09-08T16:53:11.258Z,20.30
2018-09-08T16:55:39.435Z,20.30
2018-09-08T16:58:07.651Z,20.20
2018-09-08T17:00:35.765Z,20.10
2018-09-08T17:03:03.854Z,19.90
2018-09-08T17:05:32.037Z,19.90
2018-09-08T17:08:00.137Z,19.80
2018-09-08T17:10:28.262Z,19.70
2018-09-08T17:12:56.450Z,19.60
2018-09-08T17:15:24.593Z,19.60
2018-09-08T17:17:52.722Z,19.60
2018-09-08T17:20:20.857Z,19.50
2018-09-08T17:22:49.104Z,19.50
2018-09-08T17:25:17.253Z,19.50
2018-09-08T17:27:45.414Z,19.40
2018-09-08T17:30:13.554Z,19.40
2018-09-08T17:32:41.743Z,19.30
2018-09-08T17:35:09.979Z,19.20
2018-09-08T17:37:38.193Z,19.10
2018-09-08T17:40:06.772Z,19.00
2018-09-08T17:45:02.817Z,18.80
2018-09-08T17:47:30.941Z,18.70
2018-09-08T17:49:59.069Z,18.60
2018-09-08T17:52:27.226Z,18.50
2018-09-08T17:54:55.375Z,18.50
2018-09-08T17:57:23.591Z,18.30
2018-09-08T17:59:51.762Z,18.20
2018-09-08T18:02:19.907Z,18.20
2018-09-08T18:04:48.046Z,18.20
2018-09-08T18:07:17.561Z,18.00
2018-09-08T18:09:46.034Z,18.00
2018-09-08T18:14:42.259Z,17.80
2018-09-08T18:17:10.860Z,17.70
2018-09-08T18:19:39.029Z,17.70
2018-09-08T18:22:07.450Z,17.60
2018-09-08T18:24:35.573Z,17.40
2018-09-08T18:27:03.774Z,17.50
2018-09-08T18:29:31.909Z,17.40
2018-09-08T18:32:00.146Z,17.40
2018-09-08T18:34:28.339Z,17.20
2018-09-08T18:36:56.532Z,17.20
2018-09-08T18:39:24.645Z,17.00
2018-09-08T18:41:52.787Z,16.80
2018-09-08T18:44:20.950Z,16.70
2018-09-08T18:46:49.118Z,16.50
2018-09-08T18:49:17.287Z,16.40
2018-09-08T18:51:45.447Z,16.30
2018-09-08T18:54:13.631Z,16.20
2018-09-08T18:56:41.814Z,16.10
2018-09-08T18:59:10.110Z,16.00
2018-09-08T19:01:38.264Z,15.90
2018-09-08T19:04:06.405Z,15.90
2018-09-08T19:06:34.580Z,15.80
2018-09-08T19:09:02.711Z,15.70
2018-09-08T19:11:30.898Z,15.60
2018-09-08T19:13:59.034Z,15.50
2018-09-08T19:16:27.178Z,15.40
2018-09-08T19:18:55.305Z,15.30
2018-09-08T19:21:23.483Z,15.20
2018-09-08T19:23:57.037Z,15.10
2018-09-08T19:26:25.169Z,15.10
2018-09-08T19:28:59.177Z,15.00
2018-09-08T19:31:27.329Z,15.00
2018-09-08T19:33:55.444Z,15.00
2018-09-08T19:36:23.642Z,14.90
2018-09-08T19:38:51.763Z,14.80
2018-09-08T19:41:19.908Z,14.60
2018-09-08T19:43:48.051Z,14.60
2018-09-08T19:46:21.665Z,14.50
2018-09-08T19:48:49.794Z,14.40
2018-09-08T19:51:17.951Z,14.40
2018-09-08T19:53:51.493Z,14.30
2018-09-08T19:56:24.355Z,14.30
2018-09-08T19:58:55.904Z,14.20
2018-09-08T20:01:24.057Z,14.10
2018-09-08T20:06:20.198Z,14.00
2018-09-08T20:08:48.361Z,13.90
2018-09-08T20:11:16.511Z,13.90
2018-09-08T20:16:12.591Z,13.80
2018-09-08T20:18:40.858Z,13.80
2018-09-08T20:21:09.045Z,13.70
2018-09-08T20:26:05.218Z,13.40
2018-09-08T20:28:33.322Z,13.30
2018-09-08T20:31:01.467Z,13.20
2018-09-08T20:33:30.068Z,13.20
2018-09-08T20:35:58.199Z,13.20
2018-09-08T20:38:26.385Z,13.10
2018-09-08T20:40:54.584Z,13.00
2018-09-08T20:43:22.706Z,12.90
2018-09-08T20:48:19.658Z,12.80
2018-09-08T20:50:47.804Z,12.80
2018-09-08T20:53:16.003Z,12.80
2018-09-08T20:55:44.180Z,12.90
2018-09-08T20:58:12.374Z,12.80
2018-09-08T21:00:40.559Z,12.70
2018-09-08T21:03:08.707Z,12.70
2018-09-08T21:05:36.863Z,12.70
2018-09-08T21:08:05.006Z,12.60
2018-09-08T21:13:01.087Z,12.60
2018-09-08T21:15:29.210Z,12.60
2018-09-08T21:17:57.388Z,12.50
2018-09-08T21:20:25.526Z,12.50
2018-09-08T21:22:53.703Z,12.50
2018-09-08T21:25:21.855Z,12.30
2018-09-08T21:27:50.063Z,12.10
2018-09-08T21:30:18.134Z,12.00
2018-09-08T21:32:46.287Z,12.00
2018-09-08T21:35:14.406Z,12.10
2018-09-08T21:37:42.559Z,12.10
2018-09-08T21:40:10.695Z,12.10
2018-09-08T21:45:06.730Z,12.20
2018-09-08T21:50:02.808Z,12.30
2018-09-08T21:52:30.959Z,12.40
2018-09-08T21:54:59.118Z,12.40
2018-09-08T21:57:27.262Z,12.00
2018-09-08T21:59:55.395Z,11.90
2018-09-08T22:02:23.513Z,11.80
2018-09-08T22:04:51.705Z,11.80
2018-09-08T22:07:19.870Z,11.80
2018-09-08T22:12:15.937Z,11.90
2018-09-08T22:14:44.070Z,11.90
2018-09-08T22:17:12.195Z,11.90
2018-09-08T22:19:40.317Z,12.00
2018-09-08T22:22:08.457Z,12.00
2018-09-08T22:24:36.589Z,12.10
2018-09-08T22:27:05.234Z,12.10
2018-09-08T22:29:33.386Z,12.10
2018-09-08T22:32:01.530Z,12.10
2018-09-08T22:34:29.656Z,12.20
2018-09-08T22:36:57.802Z,12.20
2018-09-08T22:41:53.865Z,12.20
2018-09-08T22:44:22.006Z,12.30
2018-09-08T22:46:50.146Z,12.20
2018-09-08T22:49:18.319Z,12.20
2018-09-08T22:51:46.449Z,12.10
2018-09-08T22:54:14.606Z,12.10
2018-09-08T22:56:42.888Z,12.10
2018-09-08T22:59:10.964Z,12.10
2018-09-08T23:01:39.107Z,12.00
2018-09-08T23:04:07.256Z,11.90
2018-09-08T23:06:35.369Z,11.70
2018-09-08T23:13:59.511Z,11.50
2018-09-08T23:16:27.630Z,11.50
2018-09-08T23:18:55.758Z,11.40
2018-09-08T23:21:23.885Z,11.50
2018-09-08T23:23:52.018Z,11.50
2018-09-08T23:28:48.163Z,11.40
2018-09-08T23:31:16.287Z,11.30
2018-09-08T23:36:12.347Z,10.90
2018-09-08T23:38:40.502Z,10.80
2018-09-08T23:43:36.536Z,10.60
2018-09-08T23:46:04.721Z,10.60
2018-09-08T23:48:32.868Z,10.50
2018-09-08T23:51:01.013Z,10.60
2018-09-08T23:53:29.153Z,10.60
2018-09-08T23:55:57.297Z,10.60
2018-09-08T23:58:25.453Z,10.70
